createdAt,value
2023-05-08T00:01:20.868Z,101307.31
2023-05-08T00:03:25.207Z,101311.69
2023-05-08T00:05:28.931Z,101318.75
2023-05-08T00:07:32.530Z,101302.00
2023-05-08T00:09:36.080Z,101317.03
2023-05-08T00:11:40.121Z,101312.63
2023-05-08T00:13:43.662Z,101320.50
2023-05-08T00:15:47.232Z,101308.03
2023-05-08T00:17:52.538Z,101318.47
2023-05-08T00:19:56.027Z,101317.53
2023-05-08T00:21:59.677Z,101295.44
2023-05-08T00:24:03.034Z,101318.41
2023-05-08T00:26:06.936Z,101311.28
2023-05-08T00:28:10.418Z,101314.75
2023-05-08T00:30:15.251Z,101320.03
2023-05-08T00:32:18.855Z,101312.97
2023-05-08T00:34:23.842Z,101294.38
2023-05-08T00:36:27.543Z,101317.41
2023-05-08T00:38:32.122Z,101316.47
2023-05-08T00:40:35.757Z,101327.03
2023-05-08T00:42:39.758Z,101319.16
2023-05-08T00:44:43.138Z,101300.69
2023-05-08T00:46:47.393Z,101321.09
2023-05-08T00:48:51.077Z,101322.91
2023-05-08T00:50:56.746Z,101334.38
2023-05-08T00:53:03.745Z,101330.88
2023-05-08T00:55:09.347Z,101330.03
2023-05-08T00:57:13.514Z,101328.19
2023-05-08T00:59:18.989Z,101329.84
2023-05-08T01:01:22.671Z,101334.22
2023-05-08T01:03:26.790Z,101327.13
2023-05-08T01:05:30.958Z,101330.63
2023-05-08T01:07:39.757Z,101329.72
2023-05-08T01:09:43.183Z,101328.78
2023-05-08T01:11:53.592Z,101324.31
2023-05-08T01:14:08.833Z,101327.78
2023-05-08T01:16:17.811Z,101322.44
2023-05-08T01:18:34.713Z,101329.47
2023-05-08T01:20:47.509Z,101324.09
2023-05-08T01:23:29.050Z,101327.69
2023-05-08T01:26:15.739Z,101332.16
2023-05-08T01:28:38.503Z,101329.38
2023-05-08T01:31:06.640Z,101328.44
2023-05-08T01:33:19.634Z,101328.41
2023-05-08T01:35:30.211Z,101338.09
2023-05-08T01:37:47.057Z,101337.28
2023-05-08T01:40:03.583Z,101340.84
2023-05-08T01:42:14.878Z,101346.09
2023-05-08T01:44:20.921Z,101339.06
2023-05-08T01:46:27.944Z,101339.06
2023-05-08T01:48:36.136Z,101338.16
2023-05-08T01:50:48.434Z,101342.53
2023-05-08T01:52:59.144Z,101337.19
2023-05-08T01:55:06.494Z,101339.75
2023-05-08T01:57:11.841Z,101348.59
2023-05-08T01:59:20.789Z,101332.69
2023-05-08T02:01:26.273Z,101355.66
2023-05-08T02:03:35.172Z,101343.38
2023-05-08T02:05:39.619Z,101349.53
2023-05-08T02:07:45.027Z,101353.06
2023-05-08T02:09:49.456Z,101359.16
2023-05-08T02:11:54.895Z,101254.91
2023-05-08T02:14:00.676Z,101360.16
2023-05-08T02:16:04.929Z,101350.41
2023-05-08T02:18:10.193Z,101333.53
2023-05-08T02:20:16.982Z,101356.47
2023-05-08T02:22:24.197Z,101357.31
2023-05-08T02:24:28.001Z,101356.44
2023-05-08T02:26:34.388Z,101357.28
2023-05-08T02:28:39.191Z,101330.59
2023-05-08T02:30:43.790Z,101336.72
2023-05-08T02:32:49.423Z,101356.94
2023-05-08T02:35:03.153Z,101360.53
2023-05-08T02:37:10.445Z,101363.94
2023-05-08T02:39:16.176Z,101366.50
2023-05-08T02:41:22.692Z,101368.25
2023-05-08T02:43:26.669Z,101349.50
2023-05-08T02:45:37.811Z,101367.13
2023-05-08T02:47:48.600Z,101371.56
2023-05-08T02:49:57.370Z,101371.53
2023-05-08T02:52:09.910Z,101378.53
2023-05-08T02:54:22.810Z,101380.31
2023-05-08T02:56:37.234Z,101366.22
2023-05-08T02:58:46.876Z,101375.03
2023-05-08T03:00:59.918Z,101360.16
2023-05-08T03:03:10.806Z,101358.47
2023-05-08T03:05:19.407Z,101362.13
2023-05-08T03:07:27.009Z,101368.41
2023-05-08T03:09:40.733Z,101362.16
2023-05-08T03:11:48.326Z,101364.72
2023-05-08T03:13:56.423Z,101363.03
2023-05-08T03:16:03.261Z,101365.56
2023-05-08T03:18:10.883Z,101351.31
2023-05-08T03:20:18.713Z,101358.44
2023-05-08T03:22:23.380Z,101363.69
2023-05-08T03:24:30.460Z,101361.91
2023-05-08T03:26:35.295Z,101363.59
2023-05-08T03:28:40.212Z,101357.41
2023-05-08T03:30:44.619Z,101363.47
2023-05-08T03:32:52.170Z,101358.16
2023-05-08T03:34:59.687Z,101360.81
2023-05-08T03:37:03.477Z,101359.00
2023-05-08T03:39:07.671Z,101319.97
2023-05-08T03:41:11.821Z,101333.16
2023-05-08T03:43:17.436Z,101355.19
2023-05-08T03:45:22.041Z,101353.31
2023-05-08T03:47:26.977Z,101347.97
2023-05-08T03:49:32.145Z,101347.09
2023-05-08T03:51:38.205Z,101325.75
2023-05-08T03:53:41.636Z,101343.66
2023-05-08T03:55:45.272Z,101349.84
2023-05-08T03:57:58.017Z,101348.97
2023-05-08T04:00:09.659Z,101349.88
2023-05-08T04:02:30.878Z,101333.91
2023-05-08T04:04:43.233Z,101320.59
2023-05-08T04:06:57.685Z,101354.97
2023-05-08T04:09:14.218Z,101354.94
2023-05-08T04:11:26.774Z,101358.41
2023-05-08T04:13:33.500Z,101354.94
2023-05-08T04:15:47.965Z,101357.44
2023-05-08T04:17:56.792Z,101354.78
2023-05-08T04:20:10.222Z,101361.78
2023-05-08T04:22:21.421Z,101365.19
2023-05-08T04:24:34.883Z,101363.63
2023-05-08T04:26:39.298Z,101367.34
2023-05-08T04:28:42.916Z,101368.38
2023-05-08T04:30:48.995Z,101364.97
2023-05-08T04:32:53.590Z,101370.28
2023-05-08T04:34:57.456Z,101363.28
2023-05-08T04:37:01.163Z,101375.72
2023-05-08T04:39:05.724Z,101373.13
2023-05-08T04:41:09.775Z,101380.16
2023-05-08T04:43:13.668Z,101380.94
2023-05-08T04:45:17.440Z,101378.19
2023-05-08T04:47:24.033Z,101379.03
2023-05-08T04:49:27.802Z,101382.47
2023-05-08T04:51:31.836Z,101376.16
2023-05-08T04:53:35.254Z,101375.09
2023-05-08T04:55:39.329Z,101382.03
2023-05-08T04:57:44.492Z,101379.22
2023-05-08T04:59:48.456Z,101383.59
2023-05-08T05:01:52.139Z,101385.34
2023-05-08T05:03:56.883Z,101381.06
2023-05-08T05:06:01.227Z,101387.09
2023-05-08T05:08:05.179Z,101390.38
2023-05-08T05:10:09.436Z,101396.50
2023-05-08T05:12:13.374Z,101391.28
2023-05-08T05:14:17.165Z,101389.59
2023-05-08T05:16:20.675Z,101397.56
2023-05-08T05:18:24.568Z,101402.84
2023-05-08T05:20:31.343Z,101405.47
2023-05-08T05:22:35.893Z,101402.00
2023-05-08T05:24:39.846Z,101402.28
2023-05-08T05:26:43.509Z,101412.97
2023-05-08T05:28:47.016Z,101417.38
2023-05-08T05:30:50.598Z,101413.91
2023-05-08T05:32:54.424Z,101411.09
2023-05-08T05:34:58.021Z,101412.69
2023-05-08T05:37:02.916Z,101411.78
2023-05-08T05:39:06.375Z,101414.47
2023-05-08T05:41:10.847Z,101415.25
2023-05-08T05:43:14.389Z,101415.09
2023-05-08T05:45:18.409Z,101417.53
2023-05-08T05:47:25.251Z,101421.94
2023-05-08T05:49:28.903Z,101426.47
2023-05-08T05:51:32.424Z,101423.75
2023-05-08T05:53:38.269Z,101419.38
2023-05-08T05:55:42.318Z,101432.59
2023-05-08T05:57:45.931Z,101437.78
2023-05-08T05:59:49.511Z,101431.63
2023-05-08T06:01:53.627Z,101426.41
2023-05-08T06:03:57.999Z,101431.00
2023-05-08T06:06:01.660Z,101422.09
2023-05-08T06:08:06.220Z,101431.63
2023-05-08T06:10:11.986Z,101433.56
2023-05-08T06:12:15.524Z,101433.63
2023-05-08T06:14:18.949Z,101432.78
2023-05-08T06:16:23.165Z,101432.69
2023-05-08T06:18:26.756Z,101441.63
2023-05-08T06:20:30.186Z,101437.16
2023-05-08T06:22:33.571Z,101437.25
2023-05-08T06:24:37.241Z,101440.78
2023-05-08T06:26:42.164Z,101441.56
2023-05-08T06:28:45.725Z,101444.16
2023-05-08T06:30:49.236Z,101444.31
2023-05-08T06:32:52.654Z,101448.97
2023-05-08T06:34:56.565Z,101448.91
2023-05-08T06:36:59.997Z,101448.16
2023-05-08T06:39:05.468Z,101448.91
2023-05-08T06:41:10.192Z,101444.50
2023-05-08T06:43:15.451Z,101446.28
2023-05-08T06:45:19.138Z,101442.19
2023-05-08T06:47:23.104Z,101443.63
2023-05-08T06:49:26.743Z,101445.50
2023-05-08T06:51:30.142Z,101439.25
2023-05-08T06:53:33.731Z,101438.69
2023-05-08T06:55:37.223Z,101433.22
2023-05-08T06:57:40.750Z,101439.38
2023-05-08T06:59:46.196Z,101435.91
2023-05-08T07:01:50.374Z,101401.41
2023-05-08T07:03:54.483Z,101427.97
2023-05-08T07:05:58.525Z,101423.59
2023-05-08T07:08:02.084Z,101427.03
2023-05-08T07:10:07.870Z,101426.13
2023-05-08T07:12:11.545Z,101437.59
2023-05-08T07:14:15.217Z,101443.59
2023-05-08T07:16:19.966Z,101445.28
2023-05-08T07:18:23.388Z,101445.41
2023-05-08T07:20:26.830Z,101456.06
2023-05-08T07:22:30.249Z,101448.22
2023-05-08T07:24:34.066Z,101430.53
2023-05-08T07:26:37.861Z,101454.66
2023-05-08T07:28:41.467Z,101446.00
2023-05-08T07:30:45.127Z,101451.38
2023-05-08T07:32:49.936Z,101457.50
2023-05-08T07:34:53.516Z,101459.25
2023-05-08T07:36:57.016Z,101464.44
2023-05-08T07:39:00.533Z,101468.91
2023-05-08T07:41:05.261Z,101467.38
2023-05-08T07:43:08.857Z,101464.09
2023-05-08T07:45:14.493Z,101467.69
2023-05-08T07:47:19.905Z,101474.69
2023-05-08T07:49:24.918Z,101470.34
2023-05-08T07:51:29.219Z,101474.69
2023-05-08T07:53:32.557Z,101475.63
2023-05-08T07:55:35.959Z,101473.03
2023-05-08T07:57:39.866Z,101486.13
2023-05-08T07:59:43.160Z,101472.25
2023-05-08T08:01:47.459Z,101481.06
2023-05-08T08:03:51.194Z,101481.94
2023-05-08T08:05:56.394Z,101481.25
2023-05-08T08:07:59.801Z,101477.84
2023-05-08T08:10:04.476Z,101490.00
2023-05-08T08:12:08.155Z,101486.47
2023-05-08T08:14:11.563Z,101476.72
2023-05-08T08:16:15.011Z,101486.47
2023-05-08T08:18:19.007Z,101490.81
2023-05-08T08:20:22.700Z,101480.34
2023-05-08T08:22:28.099Z,101403.31
2023-05-08T08:24:31.964Z,101490.09
2023-05-08T08:26:35.464Z,101483.94
2023-05-08T08:28:39.024Z,101484.94
2023-05-08T08:30:42.594Z,101471.66
2023-05-08T08:32:46.625Z,101451.41
2023-05-08T08:34:50.321Z,101476.44
2023-05-08T08:36:53.666Z,101473.88
2023-05-08T08:38:58.514Z,101479.25
2023-05-08T08:41:01.870Z,101473.16
2023-05-08T08:43:05.869Z,101470.59
2023-05-08T08:45:10.255Z,101451.13
2023-05-08T08:47:17.565Z,101462.59
2023-05-08T08:49:26.067Z,101472.44
2023-05-08T08:51:33.597Z,101468.06
2023-05-08T08:53:43.789Z,101460.97
2023-05-08T08:55:53.763Z,101368.97
2023-05-08T08:58:12.639Z,101471.66
2023-05-08T09:00:17.665Z,101482.25
2023-05-08T09:02:23.460Z,101485.00
2023-05-08T09:04:27.594Z,101485.00
2023-05-08T09:06:31.299Z,101484.09
2023-05-08T09:08:35.654Z,101489.50
2023-05-08T09:10:39.098Z,101482.50
2023-05-08T09:12:45.080Z,101484.31
2023-05-08T09:14:48.602Z,101486.16
2023-05-08T09:16:52.290Z,101486.16
2023-05-08T09:18:55.834Z,101492.38
2023-05-08T09:21:00.357Z,101492.44
2023-05-08T09:23:03.897Z,101479.22
2023-05-08T09:25:08.294Z,101482.84
2023-05-08T09:27:21.803Z,101489.03
2023-05-08T09:29:26.662Z,101485.41
2023-05-08T09:31:36.453Z,101481.88
2023-05-08T09:33:45.931Z,101486.31
2023-05-08T09:35:49.949Z,101488.09
2023-05-08T09:37:54.595Z,101488.06
2023-05-08T09:40:15.321Z,101484.50
2023-05-08T09:42:18.769Z,101488.00
2023-05-08T09:44:22.158Z,101487.16
2023-05-08T09:46:28.056Z,101490.69
2023-05-08T09:48:38.522Z,101483.69
2023-05-08T09:50:43.641Z,101478.38
2023-05-08T09:52:48.720Z,101491.59
2023-05-08T09:54:58.730Z,101495.16
2023-05-08T09:57:02.331Z,101496.06
2023-05-08T09:59:07.308Z,101487.19
2023-05-08T10:01:31.033Z,101488.06
2023-05-08T10:03:48.071Z,101490.69
2023-05-08T10:05:52.376Z,101496.81
2023-05-08T10:07:55.760Z,101490.56
2023-05-08T10:10:00.936Z,101480.84
2023-05-08T10:12:04.722Z,101485.38
2023-05-08T10:14:08.551Z,101489.84
2023-05-08T10:16:16.666Z,101491.53
2023-05-08T10:18:25.672Z,101495.06
2023-05-08T10:20:31.466Z,101486.28
2023-05-08T10:22:37.816Z,101484.53
2023-05-08T10:24:45.226Z,101484.50
2023-05-08T10:27:07.022Z,101480.84
2023-05-08T10:29:18.857Z,101478.25
2023-05-08T10:31:25.835Z,101479.13
2023-05-08T10:33:32.566Z,101479.09
2023-05-08T10:35:38.260Z,101475.50
2023-05-08T10:37:42.818Z,101469.31
2023-05-08T10:39:47.572Z,101458.72
2023-05-08T10:41:51.377Z,101463.16
2023-05-08T10:43:55.901Z,101463.22
2023-05-08T10:46:02.217Z,101462.41
2023-05-08T10:48:12.169Z,101455.34
2023-05-08T10:50:32.278Z,101415.59
2023-05-08T10:52:40.479Z,101452.81
2023-05-08T10:55:04.405Z,101443.00
2023-05-08T10:57:11.959Z,101453.56
2023-05-08T10:59:20.044Z,101461.56
2023-05-08T11:01:23.633Z,101443.97
2023-05-08T11:03:32.538Z,101464.28
2023-05-08T11:05:48.296Z,101383.75
2023-05-08T11:07:56.127Z,101412.03
2023-05-08T11:10:08.442Z,101465.09
2023-05-08T11:12:21.851Z,101446.53
2023-05-08T11:14:25.521Z,101461.44
2023-05-08T11:17:08.831Z,101456.13
2023-05-08T11:19:18.352Z,101457.88
2023-05-08T11:21:23.056Z,101459.63
2023-05-08T11:23:27.957Z,101458.78
2023-05-08T11:25:43.478Z,101449.09
2023-05-08T11:28:13.875Z,101440.28
2023-05-08T11:30:36.151Z,101448.19
2023-05-08T11:33:15.336Z,101450.75
2023-05-08T11:35:42.179Z,101445.38
2023-05-08T11:38:15.227Z,101436.50
2023-05-08T11:40:55.772Z,101440.84
2023-05-08T11:43:00.687Z,101441.81
2023-05-08T11:45:06.486Z,101441.06
2023-05-08T11:47:19.000Z,101448.06
2023-05-08T11:49:28.194Z,101440.00
2023-05-08T11:51:33.658Z,101429.53
2023-05-08T11:53:39.177Z,101411.97
2023-05-08T11:55:42.742Z,101449.22
2023-05-08T11:57:46.156Z,101413.06
2023-05-08T11:59:51.152Z,101456.41
2023-05-08T12:04:02.480Z,101455.59
2023-05-08T12:06:06.635Z,101458.28
2023-05-08T12:08:11.558Z,101454.72
2023-05-08T12:10:17.573Z,101447.59
2023-05-08T12:12:21.398Z,101449.25
2023-05-08T12:14:24.851Z,101459.81
2023-05-08T12:16:28.325Z,101449.22
2023-05-08T12:18:31.900Z,101449.94
2023-05-08T12:20:35.301Z,101449.06
2023-05-08T12:22:39.919Z,101449.94
2023-05-08T12:24:43.380Z,101452.63
2023-05-08T12:26:48.395Z,101449.06
2023-05-08T12:28:56.137Z,101459.59
2023-05-08T12:30:59.887Z,101439.25
2023-05-08T12:33:04.627Z,101448.97
2023-05-08T12:35:09.430Z,101442.75
2023-05-08T12:37:24.978Z,101440.91
2023-05-08T12:39:28.662Z,101425.03
2023-05-08T12:41:32.344Z,101443.72
2023-05-08T12:43:38.128Z,101439.34
2023-05-08T12:45:43.353Z,101439.31
2023-05-08T12:47:51.273Z,101446.19
2023-05-08T12:49:59.299Z,101424.06
2023-05-08T12:52:04.096Z,101428.41
2023-05-08T12:54:07.524Z,101425.72
2023-05-08T12:56:10.918Z,101418.69
2023-05-08T12:58:15.627Z,101420.41
2023-05-08T13:00:21.153Z,101410.69
2023-05-08T13:02:26.523Z,101415.06
2023-05-08T13:04:30.895Z,101409.00
2023-05-08T13:06:34.485Z,101404.56
2023-05-08T13:08:39.385Z,101407.09
2023-05-08T13:10:50.189Z,101404.50
2023-05-08T13:12:53.616Z,101413.31
2023-05-08T13:14:57.098Z,101393.97
2023-05-08T13:17:02.057Z,101408.09
2023-05-08T13:19:05.533Z,101408.09
2023-05-08T13:21:08.937Z,101401.13
2023-05-08T13:23:12.454Z,101393.22
2023-05-08T13:25:15.967Z,101392.34
2023-05-08T13:27:19.634Z,101388.81
2023-05-08T13:29:23.294Z,101396.75
2023-05-08T13:31:27.021Z,101392.34
2023-05-08T13:33:32.093Z,101383.50
2023-05-08T13:35:35.858Z,101378.25
2023-05-08T13:37:39.463Z,101379.06
2023-05-08T13:39:42.773Z,101384.34
2023-05-08T13:41:46.719Z,101382.63
2023-05-08T13:43:50.132Z,101377.31
2023-05-08T13:45:53.887Z,101386.09
2023-05-08T13:47:57.455Z,101385.34
2023-05-08T13:50:02.265Z,101382.75
2023-05-08T13:52:06.709Z,101377.53
2023-05-08T13:54:10.289Z,101369.63
2023-05-08T13:56:14.118Z,101372.38
2023-05-08T13:58:17.522Z,101374.13
2023-05-08T14:00:21.385Z,101373.31
2023-05-08T14:02:25.029Z,101380.41
2023-05-08T14:04:28.604Z,101376.78
2023-05-08T14:06:33.752Z,101370.63
2023-05-08T14:08:44.667Z,101376.00
2023-05-08T14:10:49.279Z,101378.63
2023-05-08T14:12:52.759Z,101375.22
2023-05-08T14:14:56.192Z,101375.25
2023-05-08T14:16:59.597Z,101369.97
2023-05-08T14:19:03.050Z,101371.75
2023-05-08T14:21:06.540Z,101369.09
2023-05-08T14:23:11.461Z,101373.53
2023-05-08T14:25:15.016Z,101371.81
2023-05-08T14:27:18.577Z,101358.66
2023-05-08T14:29:22.098Z,101359.59
2023-05-08T14:31:25.749Z,101367.63
2023-05-08T14:33:29.416Z,101365.03
2023-05-08T14:35:32.853Z,101364.22
2023-05-08T14:37:36.220Z,101366.00
2023-05-08T14:39:40.980Z,101358.94
2023-05-08T14:41:54.900Z,101363.38
2023-05-08T14:44:07.962Z,101374.88
2023-05-08T14:46:11.407Z,101369.56
2023-05-08T14:48:15.022Z,101368.69
2023-05-08T14:50:18.528Z,101374.91
2023-05-08T14:52:21.927Z,101376.66
2023-05-08T14:54:25.561Z,101372.25
2023-05-08T14:56:37.378Z,101368.75
2023-05-08T14:58:50.130Z,101373.13
2023-05-08T15:00:53.447Z,101365.94
2023-05-08T15:02:57.027Z,101366.69
2023-05-08T15:05:00.583Z,101375.31
2023-05-08T15:07:05.382Z,101362.91
2023-05-08T15:09:09.827Z,101362.81
2023-05-08T15:11:13.215Z,101372.72
2023-05-08T15:13:18.048Z,101368.47
2023-05-08T15:15:21.675Z,101369.44
2023-05-08T15:17:25.121Z,101365.84
2023-05-08T15:19:28.674Z,101365.84
2023-05-08T15:21:32.114Z,101360.50
2023-05-08T15:23:35.588Z,101364.84
2023-05-08T15:25:39.116Z,101359.53
2023-05-08T15:27:42.637Z,101354.19
2023-05-08T15:29:48.574Z,101345.38
2023-05-08T15:31:53.270Z,101352.34
2023-05-08T15:33:57.169Z,101329.38
2023-05-08T15:36:00.528Z,101359.25
2023-05-08T15:38:06.032Z,101359.22
2023-05-08T15:40:10.430Z,101351.25
2023-05-08T15:42:13.819Z,101355.72
2023-05-08T15:44:20.052Z,101359.31
2023-05-08T15:46:24.977Z,101347.94
2023-05-08T15:48:28.583Z,101354.91
2023-05-08T15:50:31.950Z,101360.34
2023-05-08T15:52:35.270Z,101337.47
2023-05-08T15:54:38.714Z,101349.75
2023-05-08T15:56:42.124Z,101347.03
2023-05-08T15:58:45.512Z,101349.56
2023-05-08T16:00:48.901Z,101335.41
2023-05-08T16:02:53.757Z,101342.47
2023-05-08T16:04:58.482Z,101343.41
2023-05-08T16:07:01.903Z,101338.19
2023-05-08T16:09:05.987Z,101341.81
2023-05-08T16:11:09.468Z,101335.69
2023-05-08T16:13:12.914Z,101329.47
2023-05-08T16:15:16.884Z,101325.94
2023-05-08T16:17:20.247Z,101343.72
2023-05-08T16:19:24.916Z,101333.03
2023-05-08T16:21:28.248Z,101324.22
2023-05-08T16:23:31.582Z,101253.56
2023-05-08T16:25:35.338Z,101325.78
2023-05-08T16:27:38.752Z,101326.66
2023-05-08T16:29:42.137Z,101323.00
2023-05-08T16:31:45.560Z,101326.41
2023-05-08T16:33:49.007Z,101323.66
2023-05-08T16:35:53.989Z,101321.00
2023-05-08T16:37:57.365Z,101323.75
2023-05-08T16:40:00.803Z,101322.81
2023-05-08T16:42:04.248Z,101319.25
2023-05-08T16:44:07.632Z,101314.03
2023-05-08T16:46:11.053Z,101316.78
2023-05-08T16:48:14.445Z,101308.75
2023-05-08T16:50:17.793Z,101309.69
2023-05-08T16:52:22.564Z,101301.75
2023-05-08T16:54:25.992Z,101293.00
2023-05-08T16:56:29.480Z,101304.66
2023-05-08T16:58:33.062Z,101298.63
2023-05-08T17:00:36.544Z,101294.22
2023-05-08T17:02:39.953Z,101300.53
2023-05-08T17:04:43.295Z,101294.34
2023-05-08T17:06:46.727Z,101296.06
2023-05-08T17:08:51.437Z,101304.94
2023-05-08T17:10:54.738Z,101299.69
2023-05-08T17:12:58.161Z,101293.44
2023-05-08T17:15:01.488Z,101300.50
2023-05-08T17:17:04.808Z,101307.56
2023-05-08T17:19:08.399Z,101307.56
2023-05-08T17:21:11.751Z,101304.97
2023-05-08T17:23:15.094Z,101311.16
2023-05-08T17:25:19.961Z,101309.41
2023-05-08T17:27:23.311Z,101311.19
2023-05-08T17:29:26.679Z,101217.75
2023-05-08T17:31:30.163Z,101308.56
2023-05-08T17:33:33.594Z,101305.94
2023-05-08T17:35:36.955Z,101297.16
2023-05-08T17:37:40.366Z,101301.56
2023-05-08T17:39:43.680Z,101303.31
2023-05-08T17:41:49.202Z,101305.09
2023-05-08T17:43:53.417Z,101308.69
2023-05-08T17:45:56.795Z,101306.91
2023-05-08T17:48:00.352Z,101299.00
2023-05-08T17:50:04.819Z,101296.34
2023-05-08T17:52:08.101Z,101306.97
2023-05-08T17:54:11.554Z,101293.72
2023-05-08T17:56:16.266Z,101296.31
2023-05-08T17:58:21.127Z,101305.19
2023-05-08T18:00:24.509Z,101301.66
2023-05-08T18:02:27.899Z,101301.66
2023-05-08T18:04:31.273Z,101301.63
2023-05-08T18:06:34.740Z,101307.84
2023-05-08T18:08:39.588Z,101306.94
2023-05-08T18:10:44.106Z,101313.13
2023-05-08T18:12:47.434Z,101304.31
2023-05-08T18:14:52.123Z,101310.47
2023-05-08T18:16:55.612Z,101315.78
2023-05-08T18:18:59.066Z,101316.66
2023-05-08T18:21:02.447Z,101318.41
2023-05-08T18:23:05.834Z,101312.25
2023-05-08T18:25:09.668Z,101261.97
2023-05-08T18:27:12.961Z,101315.75
2023-05-08T18:29:16.428Z,101316.66
2023-05-08T18:31:21.224Z,101309.59
2023-05-08T18:33:24.585Z,101312.22
2023-05-08T18:35:27.976Z,101310.47
2023-05-08T18:37:31.341Z,101309.59
2023-05-08T18:39:34.747Z,101310.47
2023-05-08T18:41:38.045Z,101308.72
2023-05-08T18:43:41.772Z,101312.22
2023-05-08T18:45:45.203Z,101300.75
2023-05-08T18:47:49.995Z,101306.94
2023-05-08T18:49:53.360Z,101299.88
2023-05-08T18:51:56.696Z,101304.31
2023-05-08T18:54:00.285Z,101299.88
2023-05-08T18:56:04.161Z,101297.25
2023-05-08T18:58:07.521Z,101298.09
2023-05-08T19:00:11.912Z,101203.66
2023-05-08T19:02:15.492Z,101288.34
2023-05-08T19:04:20.244Z,101290.16
2023-05-08T19:06:23.670Z,101289.25
2023-05-08T19:08:27.111Z,101293.63
2023-05-08T19:10:30.445Z,101293.63
2023-05-08T19:12:34.013Z,101287.44
2023-05-08T19:14:38.305Z,101298.91
2023-05-08T19:16:41.730Z,101299.78
2023-05-08T19:18:45.213Z,101298.00
2023-05-08T19:20:49.874Z,101302.41
2023-05-08T19:22:53.237Z,101300.63
2023-05-08T19:24:56.743Z,101289.16
2023-05-08T19:27:00.148Z,101312.06
2023-05-08T19:29:03.555Z,101300.63
2023-05-08T19:31:07.183Z,101295.31
2023-05-08T19:33:10.618Z,101289.13
2023-05-08T19:35:14.041Z,101285.59
2023-05-08T19:37:18.770Z,101291.75
2023-05-08T19:39:22.090Z,101285.56
2023-05-08T19:41:25.491Z,101288.19
2023-05-08T19:43:28.852Z,101293.47
2023-05-08T19:45:32.296Z,101291.66
2023-05-08T19:47:35.792Z,101277.56
2023-05-08T19:49:39.131Z,101288.16
2023-05-08T19:51:42.436Z,101295.19
2023-05-08T19:53:47.388Z,101289.03
2023-05-08T19:55:50.737Z,101298.69
2023-05-08T19:57:54.095Z,101270.44
2023-05-08T19:59:57.596Z,101302.22
2023-05-08T20:02:01.313Z,101304.88
2023-05-08T20:04:04.799Z,101304.81
2023-05-08T20:06:08.218Z,101308.38
2023-05-08T20:08:11.737Z,101297.78
2023-05-08T20:10:16.628Z,101299.56
2023-05-08T20:12:20.423Z,101298.66
2023-05-08T20:14:23.792Z,101291.56
2023-05-08T20:16:27.437Z,101297.69
2023-05-08T20:18:30.926Z,101287.94
2023-05-08T20:20:34.832Z,101302.03
2023-05-08T20:22:38.777Z,101294.97
2023-05-08T20:24:42.128Z,101304.66
2023-05-08T20:26:46.864Z,101308.16
2023-05-08T20:28:50.535Z,101299.38
2023-05-08T20:30:54.234Z,101299.38
2023-05-08T20:33:04.351Z,101298.50
2023-05-08T20:35:08.750Z,101290.53
2023-05-08T20:37:12.895Z,101287.91
2023-05-08T20:39:16.447Z,101298.47
2023-05-08T20:41:19.829Z,101296.72
2023-05-08T20:43:24.560Z,101296.72
2023-05-08T20:45:27.999Z,101207.50
2023-05-08T20:47:31.826Z,101271.94
2023-05-08T20:49:35.124Z,101300.19
2023-05-08T20:51:38.626Z,101292.28
2023-05-08T20:53:42.180Z,101285.28
2023-05-08T20:55:45.592Z,101286.13
2023-05-08T20:57:49.173Z,101290.50
2023-05-08T20:59:54.016Z,101282.56
2023-05-08T21:01:57.335Z,101276.44
2023-05-08T21:04:00.711Z,101274.59
2023-05-08T21:06:04.407Z,101266.66
2023-05-08T21:08:08.736Z,101197.72
2023-05-08T21:10:12.945Z,101271.91
2023-05-08T21:12:16.417Z,101279.75
2023-05-08T21:14:19.816Z,101255.91
2023-05-08T21:16:26.778Z,101219.75
2023-05-08T21:18:30.360Z,101258.59
2023-05-08T21:20:34.238Z,101269.16
2023-05-08T21:22:37.552Z,101228.53
2023-05-08T21:24:50.802Z,101252.41
2023-05-08T21:26:54.474Z,101257.66
2023-05-08T21:28:58.613Z,101257.56
2023-05-08T21:31:02.158Z,101233.75
2023-05-08T21:33:07.010Z,101245.28
2023-05-08T21:35:11.733Z,101258.44
2023-05-08T21:37:15.301Z,101248.69
2023-05-08T21:39:18.920Z,101252.19
2023-05-08T21:41:22.726Z,101249.56
2023-05-08T21:43:26.139Z,101250.53
2023-05-08T21:45:31.789Z,101249.63
2023-05-08T21:47:35.351Z,101243.50
2023-05-08T21:49:40.082Z,101244.31
2023-05-08T21:51:44.334Z,101207.16
2023-05-08T21:53:47.702Z,101251.28
2023-05-08T21:55:51.617Z,101243.38
2023-05-08T21:57:55.004Z,101249.53
2023-05-08T21:59:58.300Z,101199.22
2023-05-08T22:02:02.969Z,101234.56
2023-05-08T22:04:06.464Z,101237.13
2023-05-08T22:06:11.353Z,101230.97
2023-05-08T22:08:14.794Z,101230.94
2023-05-08T22:10:18.363Z,101230.94
2023-05-08T22:12:21.777Z,101204.50
2023-05-08T22:14:25.094Z,101221.19
2023-05-08T22:16:29.040Z,101227.38
2023-05-08T22:18:32.583Z,101229.13
2023-05-08T22:20:35.925Z,101230.84
2023-05-08T22:22:41.024Z,101222.06
2023-05-08T22:24:44.374Z,101215.91
2023-05-08T22:26:47.656Z,101210.63
2023-05-08T22:28:50.981Z,101218.63
2023-05-08T22:30:54.304Z,101216.03
2023-05-08T22:32:59.422Z,101216.88
2023-05-08T22:35:02.868Z,101215.91
2023-05-08T22:37:06.247Z,101219.53
2023-05-08T22:39:11.632Z,101210.72
2023-05-08T22:41:14.974Z,101216.88
2023-05-08T22:43:18.376Z,101211.53
2023-05-08T22:45:23.355Z,101209.81
2023-05-08T22:47:27.209Z,101208.97
2023-05-08T22:49:31.124Z,101200.31
2023-05-08T22:51:34.569Z,101203.84
2023-05-08T22:53:37.968Z,101182.63
2023-05-08T22:55:42.661Z,101210.03
2023-05-08T22:57:46.023Z,101203.81
2023-05-08T22:59:49.417Z,101201.13
2023-05-08T23:01:52.866Z,101201.94
2023-05-08T23:03:56.524Z,101195.75
2023-05-08T23:06:00.025Z,101193.06
2023-05-08T23:08:03.477Z,101196.56
2023-05-08T23:10:07.833Z,101193.91
2023-05-08T23:12:12.749Z,101186.84
2023-05-08T23:14:16.075Z,101180.66
2023-05-08T23:16:19.934Z,101139.13
2023-05-08T23:18:23.361Z,101177.03
2023-05-08T23:20:27.003Z,101171.75
2023-05-08T23:22:30.359Z,101169.13
2023-05-08T23:24:35.902Z,101163.91
2023-05-08T23:26:41.950Z,101166.47
2023-05-08T23:28:46.869Z,101163.81
2023-05-08T23:30:50.173Z,101155.94
2023-05-08T23:32:53.655Z,101157.69
2023-05-08T23:34:57.790Z,101156.78
2023-05-08T23:37:02.389Z,101155.88
2023-05-08T23:39:07.090Z,101151.53
2023-05-08T23:41:10.832Z,101144.50
2023-05-08T23:43:14.435Z,101155.13
2023-05-08T23:45:19.492Z,101149.78
2023-05-08T23:47:23.917Z,101148.88
2023-05-08T23:49:27.281Z,101142.69
2023-05-08T23:51:30.778Z,101140.84
2023-05-08T23:53:34.113Z,101136.38
2023-05-08T23:55:37.877Z,101129.31